Time;durP1;ratioP1;P1;durP2;ratioP2;P2;SDS_P1;SDS_P2;PMS_P1;PMS_P2;Temp;Humidity;BMP_temperature;BMP_pressure;BME280_temperature;BME280_humidity;BME280_pressure;Samples;Min_cycle;Max_cycle;Signal;HPM_P1;HPM_P2
2021/09/10 00:04:23;;;;;;;34.90;12.17;;;;;;;33.16;49.27;96547.61;1099306;264;99043;-52
2021/09/10 00:09:24;;;;;;;30.67;12.23;;;;;;;33.55;48.87;96547.07;1098512;264;190487;-45
2021/09/10 00:14:26;;;;;;;31.53;11.60;;;;;;;33.96;48.48;96553.08;1098180;264;101033;-49
2021/09/10 00:19:28;;;;;;;582.03;197.37;;;;;;;32.53;49.51;96545.95;1098321;264;98941;-51
2021/09/10 00:24:29;;;;;;;30.80;13.40;;;;;;;34.27;47.74;96551.71;1098012;264;196045;-47
2021/09/10 00:29:31;;;;;;;30.90;12.67;;;;;;;34.80;47.24;96557.74;1098092;264;97970;-48
2021/09/10 00:34:32;;;;;;;23.73;10.67;;;;;;;34.90;47.25;96554.56;1098819;264;97057;-48
2021/09/10 00:39:34;;;;;;;21.53;9.17;;;;;;;34.97;47.21;96543.13;1099500;264;189254;-48
2021/09/10 00:44:35;;;;;;;22.90;9.97;;;;;;;35.30;46.93;96543.22;1099137;264;98055;-49
2021/09/10 00:49:37;;;;;;;19.30;9.00;;;;;;;35.39;46.87;96542.03;1099286;264;98940;-47
2021/09/10 00:54:38;;;;;;;21.17;8.73;;;;;;;35.41;46.84;96532.52;1099695;263;97999;-47
2021/09/10 00:59:40;;;;;;;16.37;7.93;;;;;;;35.61;46.72;96543.73;1098851;263;70473;-47
2021/09/10 01:04:41;;;;;;;15.75;6.85;;;;;;;35.77;46.59;96552.83;1100523;263;69703;-49
2021/09/10 01:09:43;;;;;;;15.27;7.70;;;;;;;36.00;46.27;96544.22;1099831;264;276098;-50
2021/09/10 01:14:44;;;;;;;14.23;7.33;;;;;;;36.03;46.22;96551.78;1099548;264;97959;-47
2021/09/10 01:19:46;;;;;;;13.87;7.20;;;;;;;36.12;46.09;96553.38;1099372;263;98961;-48
2021/09/10 01:24:48;;;;;;;13.33;6.83;;;;;;;36.22;46.00;96552.30;1098361;263;194093;-47
2021/09/10 01:29:49;;;;;;;12.63;6.90;;;;;;;36.41;45.79;96556.27;1099446;264;97271;-49
2021/09/10 01:34:51;;;;;;;10.37;6.90;;;;;;;36.57;45.58;96559.66;1100239;263;99421;-48
2021/09/10 01:39:52;;;;;;;14.07;6.70;;;;;;;36.75;45.32;96556.34;1099665;263;189437;-46
2021/09/10 01:44:54;;;;;;;12.80;6.93;;;;;;;37.08;44.97;96558.44;1100322;264;100236;-46
2021/09/10 01:49:55;;;;;;;11.63;6.80;;;;;;;37.03;45.00;96549.12;1102322;263;97988;-47
2021/09/10 01:54:57;;;;;;;14.73;6.60;;;;;;;37.18;44.81;96553.09;1103320;263;196677;-47
2021/09/10 01:59:58;;;;;;;11.17;6.90;;;;;;;37.25;44.69;96550.05;1104194;264;98940;-48
2021/09/10 02:05:00;;;;;;;11.17;6.60;;;;;;;37.42;44.46;96549.97;1105467;263;97685;-47
2021/09/10 02:10:02;;;;;;;12.30;6.90;;;;;;;38.05;43.73;96551.38;1105418;263;188388;-47
2021/09/10 02:15:03;;;;;;;12.57;6.83;;;;;;;38.02;43.76;96550.08;1105393;264;98827;-47
2021/09/10 02:20:05;;;;;;;10.00;7.03;;;;;;;38.15;43.52;96548.02;1105076;263;97762;-46
2021/09/10 02:25:06;;;;;;;12.30;6.80;;;;;;;38.34;43.25;96554.05;1104276;263;98741;-46
2021/09/10 02:30:08;;;;;;;12.00;7.77;;;;;;;38.28;43.33;96550.20;1101199;263;70525;-49
2021/09/10 02:35:09;;;;;;;11.23;7.53;;;;;;;35.94;46.17;96543.15;1103876;263;71455;-50
2021/09/10 02:40:11;;;;;;;12.50;7.80;;;;;;;34.58;47.93;96546.73;1099817;263;275778;-52
2021/09/10 02:45:12;;;;;;;11.90;7.90;;;;;;;33.62;49.30;96549.17;1099062;264;99477;-54
2021/09/10 02:50:14;;;;;;;14.33;7.60;;;;;;;32.91;50.27;96552.16;1100038;263;98935;-52
2021/09/10 02:55:16;;;;;;;14.90;9.03;;;;;;;32.30;51.07;96550.02;1098966;263;192139;-51
2021/09/10 03:00:18;;;;;;;13.53;9.17;;;;;;;31.79;51.77;96564.88;1099511;264;98965;-52
2021/09/10 03:05:19;;;;;;;13.83;8.73;;;;;;;31.34;52.43;96559.17;1099535;264;99010;-51
2021/09/10 03:10:21;;;;;;;12.87;8.60;;;;;;;30.90;53.05;96553.58;1100070;264;188495;-51
2021/09/10 03:15:22;;;;;;;12.90;9.20;;;;;;;30.55;53.58;96551.70;1100444;264;98846;-50
2021/09/10 03:20:24;;;;;;;12.63;8.23;;;;;;;30.21;53.98;96554.20;1099993;263;98761;-51
2021/09/10 03:25:25;;;;;;;14.50;9.27;;;;;;;29.88;54.44;96550.61;1098696;263;193834;-52
2021/09/10 03:30:27;;;;;;;12.87;8.60;;;;;;;29.60;54.88;96552.00;1099257;264;98936;-50
2021/09/10 03:35:28;;;;;;;15.20;9.30;;;;;;;29.36;55.14;96550.76;1098924;263;97966;-50
2021/09/10 03:40:35;;;;;;;15.70;9.23;;;;;;;29.09;55.55;96553.08;1100016;263;188672;-51
2021/09/10 03:45:33;;;;;;;14.40;9.67;;;;;;;28.89;55.85;96556.01;1100350;264;90407;-51
2021/09/10 03:50:35;;;;;;;14.97;9.00;;;;;;;28.72;56.05;96545.77;1100392;264;98945;-51
2021/09/10 03:55:36;;;;;;;14.77;9.53;;;;;;;28.53;56.26;96543.29;1099913;264;98115;-51
2021/09/10 04:00:38;;;;;;;12.57;9.33;;;;;;;28.34;56.53;96541.59;1100193;263;99441;-50
2021/09/10 04:05:39;;;;;;;16.63;10.17;;;;;;;28.18;56.79;96539.70;1100723;263;70983;-54
2021/09/10 04:10:47;;;;;;;13.97;9.17;;;;;;;28.03;56.96;96541.58;1099951;263;71387;-51
2021/09/10 04:15:48;;;;;;;18.17;10.27;;;;;;;27.89;57.13;96540.89;1097728;263;274630;-50
2021/09/10 04:20:50;;;;;;;14.60;9.33;;;;;;;27.78;57.27;96546.18;1098336;264;98957;-51
2021/09/10 04:25:51;;;;;;;16.00;9.90;;;;;;;27.62;57.46;96540.84;1099211;264;99986;-52
2021/09/10 04:30:53;;;;;;;15.37;9.37;;;;;;;27.49;57.62;96543.13;1099367;264;193213;-49
2021/09/10 04:35:55;;;;;;;16.47;10.40;;;;;;;27.38;57.75;96543.62;1099530;264;98957;-50
2021/09/10 04:40:56;;;;;;;16.77;10.23;;;;;;;27.30;57.82;96546.12;1099466;263;99108;-50
2021/09/10 04:45:58;;;;;;;16.60;10.83;;;;;;;27.20;57.95;96548.20;1099393;263;189451;-51
2021/09/10 04:50:59;;;;;;;15.37;10.17;;;;;;;27.08;58.10;96547.89;1099207;264;98971;-50
2021/09/10 04:56:01;;;;;;;14.93;10.10;;;;;;;27.01;58.18;96551.38;1099595;263;98991;-50
2021/09/10 05:01:02;;;;;;;15.13;9.63;;;;;;;26.92;58.30;96563.39;1099225;263;196013;-50
2021/09/10 05:06:04;;;;;;;16.70;9.43;;;;;;;26.86;58.33;96566.28;1098766;264;98944;-52
2021/09/10 05:11:05;;;;;;;15.67;9.83;;;;;;;26.75;58.50;96565.36;1099204;264;98949;-49
2021/09/10 05:16:07;;;;;;;19.57;10.60;;;;;;;26.69;58.59;96569.64;1098517;264;186738;-52
2021/09/10 05:21:08;;;;;;;14.17;8.90;;;;;;;26.64;58.61;96569.99;1098516;264;99011;-52
2021/09/10 05:26:10;;;;;;;16.00;9.40;;;;;;;26.57;58.72;96572.67;1098558;264;98945;-50
2021/09/10 05:31:11;;;;;;;14.50;8.93;;;;;;;26.53;58.77;96573.43;1100095;263;97820;-50
2021/09/10 05:36:13;;;;;;;15.17;9.40;;;;;;;26.48;58.82;96578.53;1100539;263;70904;-51
2021/09/10 05:41:15;;;;;;;13.35;9.18;;;;;;;26.41;58.91;96575.65;1100493;263;70793;-50
2021/09/10 05:46:16;;;;;;;14.67;9.57;;;;;;;26.35;58.95;96580.69;1099507;264;275090;-51
2021/09/10 05:51:18;;;;;;;13.63;9.13;;;;;;;26.30;59.03;96581.62;1098561;264;98972;-51
2021/09/10 05:56:19;;;;;;;15.50;9.40;;;;;;;26.26;59.11;96580.16;1100013;263;99125;-50
2021/09/10 06:01:21;;;;;;;14.37;9.97;;;;;;;26.20;59.12;96581.67;1098640;263;193250;-50
2021/09/10 06:06:22;;;;;;;14.13;8.90;;;;;;;26.18;59.19;96584.03;1099254;264;98954;-51
2021/09/10 06:11:24;;;;;;;13.30;8.40;;;;;;;26.11;59.24;96586.11;1100125;263;98022;-50
2021/09/10 06:16:25;;;;;;;15.13;9.10;;;;;;;26.12;59.20;96593.26;1097393;264;189695;-50
2021/09/10 06:21:27;;;;;;;16.80;10.03;;;;;;;26.07;59.25;96590.81;1095681;264;98978;-51
2021/09/10 06:26:29;;;;;;;14.57;9.23;;;;;;;26.02;59.35;96601.42;1099968;263;98023;-50
2021/09/10 06:31:30;;;;;;;15.70;9.07;;;;;;;25.94;59.45;96607.45;1099283;263;195827;-50
2021/09/10 06:36:32;;;;;;;17.30;10.37;;;;;;;25.90;59.49;96606.01;1090692;265;97679;-51
2021/09/10 06:41:33;;;;;;;14.67;9.10;;;;;;;25.91;59.48;96613.75;1092233;265;98843;-50
2021/09/10 06:46:35;;;;;;;12.57;8.97;;;;;;;25.85;59.63;96618.03;1091341;265;188534;-56
2021/09/10 06:51:36;;;;;;;13.10;9.07;;;;;;;25.83;59.65;96621.74;1092512;265;99243;-51
2021/09/10 06:56:38;;;;;;;13.20;9.00;;;;;;;25.80;59.70;96620.52;1099313;264;98997;-52
2021/09/10 07:01:39;;;;;;;13.53;9.40;;;;;;;25.81;59.70;96628.26;1099206;263;99441;-51
2021/09/10 07:06:41;;;;;;;14.43;9.47;;;;;;;25.74;59.87;96628.16;1100128;263;70329;-50
2021/09/10 07:11:42;;;;;;;18.27;9.33;;;;;;;25.72;59.89;96628.50;1100325;263;72059;-50
2021/09/10 07:16:47;;;;;;;14.53;9.37;;;;;;;25.70;59.93;96633.63;1098918;263;277005;-51
2021/09/10 07:21:49;;;;;;;14.73;9.10;;;;;;;25.65;60.02;96636.11;1097704;264;274860;-54
2021/09/10 07:26:51;;;;;;;15.27;8.43;;;;;;;25.65;60.00;96644.44;1099474;264;99500;-50
2021/09/10 07:31:53;;;;;;;13.65;8.78;;;;;;;25.66;60.01;96646.63;1098027;264;98994;-50
2021/09/10 07:36:58;;;;;;;13.17;8.57;;;;;;;25.67;59.99;96654.58;1094771;264;194069;-51
2021/09/10 07:41:58;;;;;;;14.23;8.77;;;;;;;25.60;60.07;96655.02;1098707;264;92209;-51
2021/09/10 07:46:59;;;;;;;15.50;8.90;;;;;;;25.60;60.13;96656.41;1099394;264;98003;-50
2021/09/10 07:52:01;;;;;;;16.67;8.60;;;;;;;25.57;60.21;96662.13;1099230;264;98953;-50
2021/09/10 07:57:02;;;;;;;16.77;8.67;;;;;;;25.56;60.23;96659.72;1098944;264;190305;-51
2021/09/10 08:02:04;;;;;;;13.53;8.40;;;;;;;25.51;60.29;96665.55;1097857;264;97657;-51
2021/09/10 08:07:07;;;;;;;14.53;8.60;;;;;;;25.47;60.40;96667.47;1098425;263;99539;-50
2021/09/10 08:12:09;;;;;;;12.23;7.90;;;;;;;25.48;60.36;96671.27;1099310;263;194896;-54
2021/09/10 08:17:10;;;;;;;13.30;7.83;;;;;;;25.46;60.46;96674.20;1099515;264;98958;-52
2021/09/10 08:22:12;;;;;;;11.97;7.33;;;;;;;25.45;60.42;96677.55;1097273;263;99057;-51
2021/09/10 08:27:13;;;;;;;11.83;7.47;;;;;;;25.47;60.43;96684.92;1098426;264;188073;-51
2021/09/10 08:32:15;;;;;;;12.50;7.50;;;;;;;25.44;60.46;96681.50;1099682;264;98956;-51
2021/09/10 08:37:16;;;;;;;12.10;7.87;;;;;;;25.39;60.54;96682.59;1098448;264;98124;-52
2021/09/10 08:42:18;;;;;;;12.93;7.90;;;;;;;25.40;60.53;96684.77;1099855;263;99462;-51
2021/09/10 08:47:19;;;;;;;11.37;6.80;;;;;;;25.39;60.54;96672.08;1100178;263;72014;-52
2021/09/10 08:52:22;;;;;;;12.47;7.65;;;;;;;25.37;60.95;96673.83;1094663;265;75320;-49
2021/09/10 08:57:26;;;;;;;13.07;8.07;;;;;;;25.36;60.78;96681.94;1085571;266;274087;-49
2021/09/10 09:02:27;;;;;;;17.40;8.70;;;;;;;25.35;60.71;96678.95;1086325;266;103374;-52
2021/09/10 09:07:28;;;;;;;18.97;10.13;;;;;;;25.31;60.71;96672.55;1092989;265;98980;-50
2021/09/10 09:12:30;;;;;;;18.00;9.13;;;;;;;25.34;60.72;96677.34;1100202;263;98940;-50
2021/09/10 09:17:31;;;;;;;667.73;273.30;;;;;;;;;;1099743;263;194445;-50
2021/09/10 09:22:32;;;;;;;583.25;212.68;;;;;;;;;;1087878;266;69916;-47
2021/09/10 09:27:34;;;;;;;356.50;104.27;;;;;;;;;;1094199;265;150898;-51
2021/09/10 09:32:35;;;;;;;265.37;85.17;;;;;;;;;;1092822;265;70200;-47
2021/09/10 09:37:36;;;;;;;400.10;123.17;;;;;;;;;;1090448;265;66192;-48
2021/09/10 09:42:37;;;;;;;434.73;130.70;;;;;;;;;;1094735;265;69149;-45
2021/09/10 09:47:38;;;;;;;509.90;163.57;;;;;;;;;;1090069;266;67472;-49
2021/09/10 09:52:39;;;;;;;427.67;128.23;;;;;;;;;;1092992;265;149829;-47
2021/09/10 09:57:41;;;;;;;378.00;108.65;;;;;;;;;;1094130;265;72738;-48
2021/09/10 10:02:42;;;;;;;305.00;87.27;;;;;;;;;;1090025;265;71018;-50
2021/09/10 10:07:43;;;;;;;366.10;102.20;;;;;;;;;;1093330;265;71336;-49
2021/09/10 10:12:45;;;;;;;478.13;144.13;;;;;;;;;;1094289;265;69644;-48
2021/09/10 10:17:46;;;;;;;528.23;169.90;;;;;;;;;;1093979;265;235466;-48
2021/09/10 10:22:47;;;;;;;370.48;105.30;;;;;;;;;;1093639;265;68597;-49
2021/09/10 10:27:48;;;;;;;351.60;104.47;;;;;;;;;;1091382;265;154750;-47
2021/09/10 10:32:50;;;;;;;439.83;129.67;;;;;;;;;;1092671;265;70150;-48
2021/09/10 10:37:51;;;;;;;629.40;228.87;;;;;;;;;;1091094;265;69856;-46
2021/09/10 10:42:52;;;;;;;738.77;278.90;;;;;;;;;;1093464;265;71061;-49
2021/09/10 10:47:53;;;;;;;698.95;258.38;;;;;;;;;;1095010;265;70840;-45
2021/09/10 10:52:54;;;;;;;749.10;281.93;;;;;;;;;;1092292;265;147562;-45
2021/09/10 10:57:56;;;;;;;699.07;249.87;;;;;;;;;;1092946;265;67235;-46
2021/09/10 11:02:57;;;;;;;936.27;380.07;;;;;;;;;;1092739;265;73654;-46
2021/09/10 11:07:58;;;;;;;900.07;355.60;;;;;;;;;;1094783;265;75429;-45
2021/09/10 11:12:59;;;;;;;907.43;347.23;;;;;;;;;;1094731;265;73152;-47
2021/09/10 11:18:00;;;;;;;956.27;389.80;;;;;;;;;;1094353;265;71067;-46
2021/09/10 11:23:02;;;;;;;942.03;362.33;;;;;;;;;;1091773;265;70951;-49
2021/09/10 11:28:03;;;;;;;1093.78;428.05;;;;;;;;;;1092536;265;71225;-50
2021/09/10 11:33:04;;;;;;;1078.23;405.80;;;;;;;;;;1092014;265;236000;-47
2021/09/10 11:38:06;;;;;;;884.58;314.65;;;;;;;;;;1091869;265;69614;-50
2021/09/10 11:43:07;;;;;;;576.33;173.67;;;;;;;;;;1093447;265;155480;-46
2021/09/10 11:48:09;;;;;;;623.33;215.07;;;;;;;;;;1091143;265;68788;-52
2021/09/10 11:53:10;;;;;;;702.47;252.65;;;;;;;;;;1091951;265;70352;-47
2021/09/10 11:58:12;;;;;;;906.90;346.17;;;;;;;;;;1091581;265;151992;-56
2021/09/10 12:03:13;;;;;;;812.87;292.30;;;;;;;;;;1091607;265;69948;-53
2021/09/10 12:08:14;;;;;;;587.77;182.97;;;;;;;;;;1093619;265;66684;-47
2021/09/10 12:13:15;;;;;;;822.00;321.97;;;;;;;;;;1089370;265;68431;-51
2021/09/10 12:18:18;;;;;;;752.37;266.70;;;;;;;;;;1092398;265;67004;-53
2021/09/10 12:23:19;;;;;;;628.10;198.27;;;;;;;;;;1093735;265;148793;-49
2021/09/10 12:28:20;;;;;;;561.77;153.12;;;;;;;;;;1094406;265;74434;-54
2021/09/10 12:33:22;;;;;;;548.30;152.37;;;;;;;;;;1092886;265;71176;-51
2021/09/10 12:38:24;;;;;;;430.47;112.13;;;;;;;;;;1096277;265;68671;-51
2021/09/10 12:44:00;;;;;;;452.97;212.50;;;;;;;28.85;57.38;96610.37;1126328;255;69381;-59
2021/09/10 12:49:02;;;;;;;289.00;70.37;;;;;;;28.63;57.51;96613.64;1120401;258;97608;-64
2021/09/10 12:54:03;;;;;;;270.07;61.10;;;;;;;28.18;58.34;96621.30;1119970;258;99063;-60
2021/09/10 12:59:05;;;;;;;180.53;41.27;;;;;;;28.36;57.77;96617.26;1117032;258;277316;-63
2021/09/10 13:04:07;;;;;;;130.13;32.87;;;;;;;28.75;57.29;96620.28;1120309;258;99543;-57
2021/09/10 13:09:12;;;;;;;108.33;28.17;;;;;;;29.07;56.88;96616.27;1119872;258;98938;-62
2021/09/10 13:14:12;;;;;;;9.77;6.60;;;;;;;31.44;52.74;96614.92;1118837;258;164235;-58
2021/09/10 13:19:14;;;;;;;53.57;16.27;;;;;;;28.35;59.54;96609.29;1121485;258;98931;-59
2021/09/10 13:24:20;;;;;;;402.03;193.53;;;;;;;28.49;58.59;96603.79;1120013;258;99056;-60
2021/09/10 13:29:19;;;;;;;1373.30;497.87;;;;;;;28.19;62.54;96597.82;1122868;258;162006;-65
2021/09/10 13:34:23;;;;;;;299.30;112.30;;;;;;;28.44;59.77;96590.23;1123362;258;97877;-49
2021/09/10 13:39:24;;;;;;;261.70;87.00;;;;;;;28.64;58.83;96595.73;1122990;258;71674;-55
2021/09/10 13:44:25;;;;;;;239.37;72.90;;;;;;;28.11;59.86;96608.70;1119871;258;98159;-49
2021/09/10 13:49:27;;;;;;;193.87;56.50;;;;;;;28.28;59.71;96617.59;1119178;258;197317;-48
2021/09/10 13:54:28;;;;;;;366.00;132.20;;;;;;;28.60;59.24;96607.44;1120718;258;98994;-49
2021/09/10 13:59:30;;;;;;;268.47;80.13;;;;;;;28.40;59.22;96615.91;1120863;258;98064;-54
2021/09/10 14:04:31;;;;;;;300.77;93.70;;;;;;;27.89;60.07;96619.47;1119516;258;189883;-48
2021/09/10 14:09:33;;;;;;;915.50;427.00;;;;;;;28.46;59.35;96614.34;1119136;258;98951;-51
2021/09/10 14:14:34;;;;;;;601.20;219.70;;;;;;;28.14;60.12;96617.67;1120626;258;98110;-52
2021/09/10 14:19:36;;;;;;;506.95;162.82;;;;;;;28.33;59.41;96620.83;1117070;258;99340;-49
2021/09/10 14:24:37;;;;;;;729.73;307.03;;;;;;;28.48;59.72;96614.14;1119456;258;72181;-55
2021/09/10 14:29:39;;;;;;;498.20;147.90;;;;;;;28.65;59.47;96609.87;1120395;257;72064;-47
2021/09/10 14:34:41;;;;;;;458.40;135.10;;;;;;;28.58;59.27;96603.45;1115585;258;275406;-51
2021/09/10 14:39:42;;;;;;;399.97;101.93;;;;;;;28.58;59.16;96607.03;1116306;258;99980;-49
2021/09/10 14:44:44;;;;;;;318.13;83.83;;;;;;;28.55;59.41;96606.42;1115737;258;100257;-46
2021/09/10 14:49:45;;;;;;;264.10;65.90;;;;;;;28.22;59.57;96604.01;1118119;258;193732;-48
2021/09/10 14:54:47;;;;;;;479.47;174.27;;;;;;;28.17;59.79;96609.92;1112930;256;100336;-51
2021/09/10 15:04:52;;;;;;;201.90;49.63;;;;;;;28.17;59.44;96608.53;1097464;262;161080;-48
2021/09/10 15:09:54;;;;;;;138.17;36.93;;;;;;;28.46;58.72;96611.55;1096824;264;98858;-46
2021/09/10 15:14:55;;;;;;;129.03;34.00;;;;;;;28.44;58.99;96619.50;1097336;264;98932;-47
2021/09/10 15:19:57;;;;;;;201.13;72.90;;;;;;;28.49;59.37;96614.94;1097136;264;195693;-49
2021/09/10 15:24:58;;;;;;;179.13;49.73;;;;;;;28.24;59.19;96621.13;1096446;264;98079;-51
2021/09/10 15:30:03;;;;;;;140.40;40.63;;;;;;;28.34;59.54;96623.81;1095877;264;98941;-48
2021/09/10 15:35:03;;;;;;;113.67;31.27;;;;;;;28.49;59.37;96619.13;1095072;264;158654;-50
2021/09/10 15:40:04;;;;;;;98.07;27.70;;;;;;;28.46;59.59;96609.56;1095016;264;98125;-60
2021/09/10 15:45:06;;;;;;;86.90;23.80;;;;;;;27.66;60.60;96602.97;1097140;264;99553;-48
2021/09/10 15:50:08;;;;;;;76.03;43.03;;;;;;;27.81;60.24;96601.09;1096429;264;98111;-52
2021/09/10 15:55:12;;;;;;;73.47;29.97;;;;;;;28.04;60.09;96615.61;1094764;264;71056;-49
2021/09/10 16:00:12;;;;;;;46.47;17.53;;;;;;;28.04;60.33;96613.41;1094750;263;70147;-49
2021/09/10 16:05:14;;;;;;;36.90;14.37;;;;;;;28.10;59.86;96607.11;1095629;264;71150;-52
2021/09/10 16:10:15;;;;;;;743.37;382.97;;;;;;;26.68;64.41;96611.13;1095596;264;274762;-48
2021/09/10 16:15:17;;;;;;;585.00;255.37;;;;;;;26.20;64.71;96601.92;1092887;263;96542;-52
2021/09/10 16:20:19;;;;;;;564.08;243.55;;;;;;;25.44;66.22;96626.59;1089010;264;99056;-46
2021/09/10 16:25:20;;;;;;;629.67;262.47;;;;;;;24.47;68.37;96623.25;1095050;264;194365;-46
2021/09/10 16:30:22;;;;;;;1264.07;589.83;;;;;;;24.16;69.41;96628.83;1095480;264;99020;-46
2021/09/10 16:35:23;;;;;;;1674.95;705.80;;;;;;;23.97;69.92;96629.56;1094570;264;98938;-46
2021/09/10 16:40:25;;;;;;;1915.60;761.27;;;;;;;23.81;70.39;96631.52;1096011;264;190901;-46
2021/09/10 16:45:27;;;;;;;1856.00;732.43;;;;;;;23.68;70.67;96630.01;1093774;264;98065;-46
2021/09/10 16:50:28;;;;;;;1965.87;744.17;;;;;;;23.64;70.71;96625.20;1097037;264;98940;-47
2021/09/10 16:55:30;;;;;;;1999.90;776.00;;;;;;;23.76;70.38;96638.14;1096817;264;195770;-48
2021/09/10 17:00:31;;;;;;;1679.60;640.77;;;;;;;23.73;70.49;96652.70;1095836;264;99517;-48
2021/09/10 17:05:33;;;;;;;1425.90;543.00;;;;;;;24.48;69.23;96649.78;1096214;264;97999;-48
2021/09/10 17:10:34;;;;;;;1421.13;536.77;;;;;;;23.77;70.28;96661.88;1095805;264;190142;-46
2021/09/10 17:15:36;;;;;;;1644.97;637.73;;;;;;;23.61;70.61;96671.57;1096925;264;98940;-46
2021/09/10 17:20:37;;;;;;;1824.83;692.67;;;;;;;23.63;70.48;96677.55;1096862;264;98929;-47
2021/09/10 17:25:39;;;;;;;1999.90;781.47;;;;;;;23.49;70.79;96675.73;1096179;262;98284;-47
2021/09/10 17:30:40;;;;;;;1999.90;796.93;;;;;;;23.42;71.27;96678.91;1109197;261;70820;-49
2021/09/10 17:35:42;;;;;;;1999.90;770.03;;;;;;;23.38;71.33;96666.34;1106517;261;72110;-49
2021/09/10 17:40:44;;;;;;;1999.90;755.47;;;;;;;23.39;71.27;96673.48;1108876;261;278606;-46
2021/09/10 17:45:45;;;;;;;1999.90;737.17;;;;;;;23.32;71.58;96669.16;1108577;261;97981;-46
2021/09/10 17:50:47;;;;;;;1999.90;738.60;;;;;;;23.31;71.62;96650.39;1107231;261;96977;-46
2021/09/10 17:55:48;;;;;;;1999.90;820.53;;;;;;;23.48;71.22;96650.62;1105513;261;95134;-51
2021/09/10 18:00:50;;;;;;;1999.90;756.90;;;;;;;24.91;68.03;96647.93;1106692;261;76851;-46
2021/09/10 18:05:51;;;;;;;;;;;;;;;25.91;67.30;96665.13;1107045;261;66860;-63
2021/09/10 18:10:53;;;;;;;1779.33;670.12;;;;;;;25.49;66.11;96678.41;1097442;260;189417;-59
2021/09/10 18:15:54;;;;;;;1571.70;552.83;;;;;;;25.55;66.06;96678.93;1107076;261;98820;-57
2021/09/10 18:20:56;;;;;;;1357.03;472.43;;;;;;;25.64;65.64;96680.30;1107057;261;98951;-60
2021/09/10 18:25:57;;;;;;;1340.90;481.30;;;;;;;25.89;65.31;96671.05;1109432;260;196081;-53
2021/09/10 18:30:59;;;;;;;1318.70;469.93;;;;;;;26.07;64.52;96683.86;1109088;261;98027;-50
2021/09/10 18:36:00;;;;;;;1146.97;392.03;;;;;;;25.34;66.32;96689.03;1106520;261;99435;-53
2021/09/10 18:41:02;;;;;;;927.00;308.33;;;;;;;26.12;64.57;96693.84;1109124;261;190654;-49
2021/09/10 18:46:03;;;;;;;827.27;268.57;;;;;;;25.47;66.30;96698.80;1109597;261;98932;-47
2021/09/10 18:51:05;;;;;;;823.37;287.87;;;;;;;26.34;64.22;96701.34;1108178;261;98109;-54
2021/09/10 18:56:06;;;;;;;976.40;375.57;;;;;;;26.09;65.02;96709.86;1106663;261;99442;-54
2021/09/10 19:01:08;;;;;;;992.47;391.37;;;;;;;26.32;64.60;96715.40;1109626;261;70762;-48
2021/09/10 19:06:10;;;;;;;1143.23;456.30;;;;;;;26.61;63.71;96709.73;1105901;261;71190;-50
2021/09/10 19:11:11;;;;;;;1128.17;465.80;;;;;;;25.78;65.79;96718.64;1107337;261;275318;-50
2021/09/10 19:16:13;;;;;;;1294.53;551.67;;;;;;;26.81;63.38;96705.08;1098633;263;98603;-54
2021/09/10 19:21:14;;;;;;;991.50;393.27;;;;;;;26.86;63.56;96716.45;1100442;263;98936;-49
2021/09/10 19:26:16;;;;;;;995.80;383.03;;;;;;;26.24;64.50;96716.66;1100121;263;193365;-54
2021/09/10 19:31:17;;;;;;;981.33;389.53;;;;;;;26.48;64.14;96716.10;1110478;261;97977;-52
2021/09/10 19:36:19;;;;;;;1152.20;479.33;;;;;;;26.29;64.59;96726.67;1102229;262;98821;-54
2021/09/10 19:41:20;;;;;;;1439.00;605.00;;;;;;;26.58;63.90;96728.53;1102318;262;190344;-54
2021/09/10 19:46:22;;;;;;;1199.57;473.90;;;;;;;26.77;63.60;96732.59;1096649;263;97957;-49
2021/09/10 19:51:24;;;;;;;1180.67;447.57;;;;;;;26.45;63.81;96730.72;1094658;264;98019;-48
2021/09/10 19:56:25;;;;;;;1336.10;514.23;;;;;;;24.94;67.43;96723.44;1098927;263;196213;-46
2021/09/10 20:01:27;;;;;;;1265.07;480.70;;;;;;;24.46;68.82;96718.60;1099002;263;98858;-46
2021/09/10 20:06:28;;;;;;;1366.13;550.83;;;;;;;24.39;69.07;96724.55;1097302;264;97990;-46
2021/09/10 20:11:30;;;;;;;1480.50;588.87;;;;;;;24.24;69.31;96729.72;1099614;263;189074;-51
2021/09/10 20:16:31;;;;;;;1735.73;692.13;;;;;;;24.06;69.85;96726.28;1100090;263;99443;-47
2021/09/10 20:21:34;;;;;;;1612.07;628.23;;;;;;;24.14;69.51;96716.41;1095756;263;98001;-47
2021/09/10 20:26:35;;;;;;;1944.60;720.27;;;;;;;24.04;69.85;96724.45;1099740;263;98902;-50
2021/09/10 20:31:37;;;;;;;1999.90;779.93;;;;;;;24.02;69.89;96720.62;1106277;261;70806;-48
2021/09/10 20:36:38;;;;;;;1999.90;741.03;;;;;;;24.06;70.17;96717.97;1106066;261;71780;-48
2021/09/10 20:41:40;;;;;;;1999.90;836.87;;;;;;;24.21;69.28;96724.07;1107470;261;276057;-46
2021/09/10 20:46:42;;;;;;;1945.10;692.33;;;;;;;24.12;69.43;96716.52;1108887;260;98951;-47
2021/09/10 20:51:43;;;;;;;1999.90;817.47;;;;;;;24.10;69.49;96715.50;1107104;261;97979;-48
2021/09/10 20:56:45;;;;;;;1999.90;768.20;;;;;;;24.07;69.66;96720.95;1105398;261;192514;-50
2021/09/10 21:01:46;;;;;;;1999.90;861.20;;;;;;;24.04;69.70;96718.33;1108684;260;98996;-50
2021/09/10 21:06:48;;;;;;;1999.90;793.33;;;;;;;24.03;69.72;96721.43;1106747;261;99131;-48
2021/09/10 21:11:49;;;;;;;1999.90;803.50;;;;;;;24.03;69.76;96715.89;1106148;261;190825;-48
2021/09/10 21:16:51;;;;;;;1999.90;991.47;;;;;;;23.97;69.93;96716.76;1107706;261;98039;-47
2021/09/10 21:21:52;;;;;;;1999.90;936.30;;;;;;;23.98;69.88;96718.36;1109462;261;99687;-49
2021/09/10 21:26:54;;;;;;;1999.90;977.17;;;;;;;23.95;70.00;96719.89;1101121;263;195623;-47
2021/09/10 21:31:55;;;;;;;1999.90;835.83;;;;;;;24.31;69.20;96717.22;1095059;264;98991;-50
2021/09/10 21:36:57;;;;;;;1999.90;872.83;;;;;;;25.54;66.51;96729.47;1096206;264;97992;-55
2021/09/10 21:41:58;;;;;;;1999.90;819.23;;;;;;;25.91;65.22;96723.43;1097398;264;190041;-47
2021/09/10 21:47:00;;;;;;;1999.90;915.17;;;;;;;24.66;68.10;96722.20;1097678;264;98954;-48
2021/09/10 21:52:02;;;;;;;1999.90;999.90;;;;;;;24.42;68.97;96732.13;1092109;264;98958;-49
2021/09/10 21:57:03;;;;;;;1999.90;923.20;;;;;;;24.21;69.38;96733.19;1105240;261;98017;-49
2021/09/10 22:02:05;;;;;;;1999.90;871.77;;;;;;;24.06;69.76;96727.66;1106760;261;70159;-52
2021/09/10 22:07:06;;;;;;;1999.90;831.43;;;;;;;24.42;69.25;96722.44;1104209;262;71871;-49
2021/09/10 22:12:08;;;;;;;1999.90;862.73;;;;;;;23.89;70.05;96723.27;1105453;261;276687;-49
2021/09/10 22:17:09;;;;;;;1999.90;849.03;;;;;;;23.87;70.13;96726.97;1107638;261;97996;-50
2021/09/10 22:22:11;;;;;;;1999.90;841.07;;;;;;;23.82;70.26;96732.75;1109555;261;98876;-52
2021/09/10 22:27:12;;;;;;;1999.90;818.30;;;;;;;23.78;70.31;96730.48;1109085;261;194653;-51
2021/09/10 22:32:14;;;;;;;1999.90;792.83;;;;;;;23.76;70.29;96731.42;1110196;261;98950;-50
2021/09/10 22:37:15;;;;;;;1999.90;842.80;;;;;;;25.09;68.07;96737.04;1108485;261;97972;-48
2021/09/10 22:42:17;;;;;;;1999.90;999.90;;;;;;;24.92;68.27;96740.22;1111036;261;190164;-55
2021/09/10 22:47:19;;;;;;;1999.90;842.63;;;;;;;25.23;67.62;96746.27;1109140;261;98861;-48
2021/09/10 22:52:20;;;;;;;1999.90;699.30;;;;;;;25.36;66.09;96744.95;1106144;261;98940;-47
2021/09/10 22:57:22;;;;;;;1999.90;769.13;;;;;;;25.65;65.51;96747.71;1105359;261;194779;-52
2021/09/10 23:02:23;;;;;;;1999.90;732.33;;;;;;;26.31;64.63;96746.55;1106678;261;98944;-57
2021/09/10 23:07:25;;;;;;;1999.90;754.80;;;;;;;25.12;66.61;96748.02;1108661;261;99026;-48
2021/09/10 23:12:26;;;;;;;1999.90;775.90;;;;;;;25.92;64.81;96750.02;1105609;261;192328;-56
2021/09/10 23:17:28;;;;;;;1999.90;768.33;;;;;;;25.77;65.15;96750.94;1108623;261;98031;-50